Time;durP1;ratioP1;P1;durP2;ratioP2;P2;SDS_P1;SDS_P2;PMS_P1;PMS_P2;Temp;Humidity;BMP_temperature;BMP_pressure;BME280_temperature;BME280_humidity;BME280_pressure;Samples;Min_cycle;Max_cycle;Signal;HPM_P1;HPM_P2
2023/11/12 00:02:01;;;;;;;7.80;5.60;;;;;;;5.93;49.07;100239.66;4912081;29;20072;-74
2023/11/12 00:04:30;;;;;;;6.63;5.10;;;;;;;5.92;49.38;100243.34;4909171;29;20059;-74
2023/11/12 00:06:57;;;;;;;8.02;5.75;;;;;;;5.92;49.58;100235.19;4877281;29;21164;-74
2023/11/12 00:09:27;;;;;;;8.73;6.40;;;;;;;5.93;49.42;100225.22;4890334;29;20052;-74
2023/11/12 00:11:55;;;;;;;7.65;6.10;;;;;;;5.91;49.33;100230.75;4907909;29;20061;-74
2023/11/12 00:14:24;;;;;;;8.32;6.07;;;;;;;5.91;49.28;100232.59;4909080;29;20075;-74
2023/11/12 00:16:51;;;;;;;8.15;5.97;;;;;;;5.90;49.18;100239.00;4916906;29;20598;-74
2023/11/12 00:19:19;;;;;;;7.82;5.70;;;;;;;5.90;49.48;100237.16;4910446;29;21167;-74
2023/11/12 00:21:48;;;;;;;8.68;6.32;;;;;;;5.89;49.38;100230.00;4899189;29;20130;-74
2023/11/12 00:24:17;;;;;;;8.77;5.47;;;;;;;5.90;49.53;100230.88;4907930;29;20056;-74
2023/11/12 00:26:47;;;;;;;8.82;6.32;;;;;;;5.90;49.44;100228.16;4881920;29;20051;-74
2023/11/12 00:29:16;;;;;;;8.10;5.75;;;;;;;5.88;49.46;100230.09;4906172;29;20439;-74
2023/11/12 00:31:44;;;;;;;8.18;5.80;;;;;;;5.87;49.55;100221.09;4902639;29;20055;-74
2023/11/12 00:34:12;;;;;;;8.15;6.15;;;;;;;5.87;49.73;100221.09;4903652;29;20056;-74
2023/11/12 00:36:40;;;;;;;8.32;5.47;;;;;;;5.87;49.46;100223.81;4903168;29;20139;-74
2023/11/12 00:39:09;;;;;;;7.72;5.45;;;;;;;5.87;49.64;100225.69;4897084;29;20139;-74
2023/11/12 00:41:38;;;;;;;7.28;5.45;;;;;;;5.86;49.57;100224.81;4899919;29;20071;-74
2023/11/12 00:44:10;;;;;;;7.90;5.65;;;;;;;5.87;50.00;100221.09;4897090;29;20107;-74
2023/11/12 00:46:40;;;;;;;8.05;5.65;;;;;;;5.85;50.01;100219.50;4905973;29;20432;-74
2023/11/12 00:49:09;;;;;;;8.55;6.07;;;;;;;5.86;49.83;100229.38;4890581;29;20144;-74
2023/11/12 00:51:37;;;;;;;8.27;5.53;;;;;;;5.86;49.73;100224.81;4890763;29;20097;-74
2023/11/12 00:54:05;;;;;;;8.00;5.90;;;;;;;5.86;49.85;100213.09;4902464;29;20059;-74
2023/11/12 00:56:33;;;;;;;8.15;5.65;;;;;;;5.85;49.72;100214.94;4903403;29;20803;-74
2023/11/12 00:59:04;;;;;;;7.80;5.50;;;;;;;5.85;49.94;100212.22;4894057;29;20230;-74
2023/11/12 01:01:34;;;;;;;7.43;5.55;;;;;;;5.86;49.77;100208.53;4911594;29;20052;-74
2023/11/12 01:04:03;;;;;;;7.75;5.60;;;;;;;5.84;49.92;100210.50;4890264;29;20059;-74
2023/11/12 01:06:33;;;;;;;9.20;5.68;;;;;;;5.84;49.90;100209.63;4888412;29;20067;-74
2023/11/12 01:09:01;;;;;;;8.07;5.68;;;;;;;5.84;49.75;100212.34;4901569;29;20217;-74
2023/11/12 01:11:29;;;;;;;7.85;6.15;;;;;;;5.83;49.82;100203.31;4878294;29;20134;-74
2023/11/12 01:13:57;;;;;;;7.65;5.80;;;;;;;5.84;50.23;100204.19;4914858;29;20083;-74
2023/11/12 01:16:25;;;;;;;7.57;5.65;;;;;;;5.83;50.29;100205.19;4898535;29;20052;-74
2023/11/12 01:18:58;;;;;;;9.05;5.63;;;;;;;5.85;50.28;100204.09;4901483;29;20163;-74
2023/11/12 01:21:27;;;;;;;8.23;5.47;;;;;;;5.83;50.30;100199.75;4898895;29;20520;-74
2023/11/12 01:23:55;;;;;;;7.75;5.60;;;;;;;5.85;50.31;100195.94;4902055;29;20044;-74
2023/11/12 01:26:24;;;;;;;7.45;5.60;;;;;;;5.86;50.47;100202.22;4898913;29;20052;-74
2023/11/12 01:28:52;;;;;;;8.30;5.35;;;;;;;5.87;50.49;100206.69;4891973;29;20048;-74
2023/11/12 01:31:21;;;;;;;7.18;5.28;;;;;;;5.88;50.30;100200.25;4889008;29;20056;-74
2023/11/12 01:33:49;;;;;;;7.60;5.25;;;;;;;5.89;50.36;100200.13;4889815;29;20132;-74
2023/11/12 01:36:18;;;;;;;6.45;5.18;;;;;;;5.91;50.49;100203.59;4899751;29;20771;-74
2023/11/12 01:38:46;;;;;;;7.53;5.28;;;;;;;5.92;50.44;100205.31;4888219;29;20060;-73
2023/11/12 01:41:14;;;;;;;7.80;5.07;;;;;;;5.94;50.62;100206.06;4899629;29;20130;-73
2023/11/12 01:43:42;;;;;;;8.55;5.45;;;;;;;5.96;50.49;100208.66;4899942;29;20048;-73
2023/11/12 01:46:12;;;;;;;7.68;5.72;;;;;;;5.97;50.78;100204.94;4900834;29;20142;-73
2023/11/12 01:48:40;;;;;;;8.35;5.18;;;;;;;5.98;50.53;100212.13;4897628;29;20167;-73
2023/11/12 01:51:09;;;;;;;9.45;5.53;;;;;;;5.98;50.41;100204.84;4892214;29;20056;-74
2023/11/12 01:53:40;;;;;;;8.10;5.53;;;;;;;6.02;50.77;100210.91;4904819;29;20048;-74
2023/11/12 01:56:11;;;;;;;8.60;5.53;;;;;;;6.01;50.66;100207.31;4891052;29;20820;-74
2023/11/12 01:58:43;;;;;;;8.20;5.38;;;;;;;6.02;50.42;100203.63;4916788;29;20048;-74
2023/11/12 02:01:12;;;;;;;7.25;5.43;;;;;;;6.03;50.64;100199.06;4880096;29;20055;-74
2023/11/12 02:03:43;;;;;;;7.30;5.22;;;;;;;6.03;50.43;100194.50;4909023;29;20592;-74
2023/11/12 02:06:12;;;;;;;8.73;5.43;;;;;;;6.02;50.32;100198.19;4891816;29;20052;-74
2023/11/12 02:08:42;;;;;;;7.07;5.13;;;;;;;6.03;50.44;100188.19;4881619;29;20048;-74
2023/11/12 02:11:12;;;;;;;7.68;5.40;;;;;;;6.01;50.38;100184.72;4904888;29;20052;-74
2023/11/12 02:13:43;;;;;;;7.55;5.13;;;;;;;6.00;50.41;100183.84;4907105;29;20143;-74
2023/11/12 02:16:11;;;;;;;6.43;5.03;;;;;;;5.98;50.26;100190.38;4903452;29;20060;-73
2023/11/12 02:18:44;;;;;;;7.72;5.32;;;;;;;5.98;50.44;100193.97;4909596;29;20052;-73
2023/11/12 02:21:12;;;;;;;8.38;5.35;;;;;;;5.96;50.58;100192.34;4908668;29;20052;-73
2023/11/12 02:23:41;;;;;;;9.50;5.15;;;;;;;5.96;50.56;100198.66;4916688;29;20063;-73
2023/11/12 02:26:09;;;;;;;8.48;5.28;;;;;;;5.95;50.62;100193.38;4893915;29;20079;-74
2023/11/12 02:28:38;;;;;;;7.57;4.85;;;;;;;5.94;50.59;100195.22;4901655;29;20054;-73
2023/11/12 02:31:07;;;;;;;6.57;4.93;;;;;;;5.93;50.42;100177.19;4879919;29;20058;-74
2023/11/12 02:33:35;;;;;;;6.63;4.88;;;;;;;5.93;50.42;100181.75;4878968;29;20055;-73
2023/11/12 02:36:03;;;;;;;6.60;4.95;;;;;;;5.92;50.63;100185.44;4893166;29;20047;-74
2023/11/12 02:38:31;;;;;;;6.50;5.30;;;;;;;5.91;50.68;100190.00;4894223;29;20062;-73
2023/11/12 02:41:01;;;;;;;7.82;5.20;;;;;;;5.93;50.71;100198.03;4903167;29;20075;-73
2023/11/12 02:43:30;;;;;;;6.88;4.57;;;;;;;5.91;50.58;100200.88;4915064;29;20048;-74
2023/11/12 02:45:58;;;;;;;6.40;4.85;;;;;;;5.90;50.83;100199.13;4901040;29;20048;-73
2023/11/12 02:48:39;;;;;;;7.65;5.03;;;;;;;5.91;50.40;100202.72;4903715;29;20059;-73
2023/11/12 02:51:07;;;;;;;6.45;4.63;;;;;;;5.89;50.27;100204.69;4904278;29;20052;-73
2023/11/12 02:53:35;;;;;;;6.47;4.57;;;;;;;5.87;50.38;100193.94;4907704;29;20048;-73
2023/11/12 02:56:06;;;;;;;7.35;5.22;;;;;;;5.89;50.61;100197.41;4901180;29;20076;-73
2023/11/12 02:58:35;;;;;;;6.50;4.68;;;;;;;5.86;50.52;100186.81;4909365;29;20621;-74
2023/11/12 03:01:03;;;;;;;7.20;4.80;;;;;;;5.86;50.79;100183.22;4912751;29;20052;-74
2023/11/12 03:03:31;;;;;;;5.93;4.80;;;;;;;5.85;50.84;100187.78;4903108;29;20051;-73
2023/11/12 03:05:59;;;;;;;6.82;4.80;;;;;;;5.85;50.38;100186.91;4879447;29;20076;-73
2023/11/12 03:08:27;;;;;;;7.47;5.03;;;;;;;5.85;50.52;100201.38;4908420;29;20119;-73
2023/11/12 03:10:56;;;;;;;8.32;4.88;;;;;;;5.85;50.81;100193.22;4909659;29;20063;-73
2023/11/12 03:13:26;;;;;;;7.22;4.78;;;;;;;5.85;51.01;100198.66;4902759;29;20056;-74
2023/11/12 03:15:55;;;;;;;7.25;4.95;;;;;;;5.86;50.94;100207.66;4901923;29;20119;-73
2023/11/12 03:18:24;;;;;;;7.93;4.90;;;;;;;5.86;51.06;100194.09;4892605;29;20048;-73
2023/11/12 03:20:53;;;;;;;6.20;4.43;;;;;;;5.86;50.67;100194.09;4889138;29;20119;-73
2023/11/12 03:23:21;;;;;;;6.57;4.90;;;;;;;5.87;51.03;100190.38;4903843;29;20052;-74
2023/11/12 03:25:49;;;;;;;7.20;4.82;;;;;;;5.88;50.84;100194.81;4916118;29;20641;-73
2023/11/12 03:28:17;;;;;;;7.95;4.70;;;;;;;5.88;51.22;100192.97;4902718;29;20565;-74
2023/11/12 03:30:46;;;;;;;7.70;4.80;;;;;;;5.89;51.15;100191.97;4915927;29;20103;-73
2023/11/12 03:33:14;;;;;;;7.22;4.85;;;;;;;5.88;51.02;100178.50;4903102;29;20665;-73
2023/11/12 03:35:42;;;;;;;7.57;4.75;;;;;;;5.89;50.84;100181.13;4905484;29;20719;-73
2023/11/12 03:38:10;;;;;;;6.80;4.43;;;;;;;5.90;51.16;100176.56;4916655;29;20052;-74
2023/11/12 03:40:38;;;;;;;6.85;4.68;;;;;;;5.89;51.20;100178.41;4902734;29;20060;-73
2023/11/12 03:43:06;;;;;;;6.13;4.80;;;;;;;5.91;50.72;100181.00;4904105;29;20115;-73
2023/11/12 03:45:34;;;;;;;5.93;4.40;;;;;;;5.91;51.05;100170.13;4875600;29;20506;-73
2023/11/12 03:48:04;;;;;;;5.85;4.25;;;;;;;5.92;51.01;100167.31;4908535;29;20047;-73
2023/11/12 03:50:32;;;;;;;6.07;4.78;;;;;;;5.91;51.03;100172.84;4902182;29;20059;-73
2023/11/12 03:53:00;;;;;;;6.97;4.63;;;;;;;5.92;50.93;100174.59;4909904;29;20064;-74
2023/11/12 03:55:28;;;;;;;7.80;4.65;;;;;;;5.92;51.32;100170.03;4903130;29;20056;-73
2023/11/12 03:57:56;;;;;;;6.20;4.70;;;;;;;5.91;50.91;100171.00;4893551;29;20131;-73
2023/11/12 04:00:24;;;;;;;6.25;4.70;;;;;;;5.91;51.04;100171.00;4908528;29;20055;-73
2023/11/12 04:02:53;;;;;;;7.85;4.28;;;;;;;5.91;51.13;100171.00;4890395;29;20126;-73
2023/11/12 04:05:22;;;;;;;6.40;4.97;;;;;;;5.93;51.29;100166.31;4892209;29;20052;-73
2023/11/12 04:07:51;;;;;;;6.20;4.25;;;;;;;5.92;51.41;100164.59;4891914;29;20519;-73
2023/11/12 04:10:20;;;;;;;6.32;4.75;;;;;;;5.93;51.29;100162.75;4896259;29;21110;-73
2023/11/12 04:12:48;;;;;;;8.15;5.07;;;;;;;5.94;51.29;100161.75;4885970;29;20056;-72
2023/11/12 04:15:16;;;;;;;6.03;4.28;;;;;;;5.94;51.26;100161.75;4887440;29;20052;-72
2023/11/12 04:17:44;;;;;;;7.03;4.53;;;;;;;5.95;51.40;100164.31;4897889;29;20052;-72
2023/11/12 04:20:14;;;;;;;5.65;4.35;;;;;;;5.96;51.38;100157.03;4880370;29;20059;-73
2023/11/12 04:22:45;;;;;;;6.43;4.47;;;;;;;5.99;51.32;100156.81;4882064;29;20068;-73
2023/11/12 04:25:13;;;;;;;6.40;4.63;;;;;;;5.97;51.39;100151.50;4892989;29;20052;-72
2023/11/12 04:27:41;;;;;;;6.57;5.00;;;;;;;5.97;51.03;100153.34;4891234;29;20049;-72
2023/11/12 04:30:10;;;;;;;6.30;4.50;;;;;;;5.98;51.18;100155.94;4881944;29;20135;-73
2023/11/12 04:32:38;;;;;;;6.30;5.00;;;;;;;5.97;51.18;100153.34;4909979;29;20056;-74
2023/11/12 04:35:07;;;;;;;6.90;4.75;;;;;;;5.97;51.19;100150.63;4911520;29;20048;-72
2023/11/12 04:37:35;;;;;;;6.25;4.38;;;;;;;5.96;51.30;100154.31;4891595;29;20592;-74
2023/11/12 04:40:06;;;;;;;6.68;4.88;;;;;;;5.97;51.47;100156.06;4878593;29;20049;-74
2023/11/12 04:42:34;;;;;;;8.05;4.80;;;;;;;5.94;51.36;100157.19;4878663;29;20540;-74
2023/11/12 04:45:02;;;;;;;6.65;4.90;;;;;;;5.94;51.29;100162.63;4889004;29;20055;-74
2023/11/12 04:47:30;;;;;;;6.00;4.53;;;;;;;5.93;51.31;100163.59;4879299;29;20056;-74
2023/11/12 04:49:59;;;;;;;5.93;4.55;;;;;;;5.93;51.19;100162.75;4879682;29;20077;-74
2023/11/12 04:52:27;;;;;;;6.75;4.68;;;;;;;5.92;51.04;100156.44;4890655;29;20048;-74
2023/11/12 04:54:55;;;;;;;6.43;4.65;;;;;;;5.92;51.64;100161.00;4876519;29;20084;-74
2023/11/12 04:57:24;;;;;;;6.90;4.40;;;;;;;5.94;51.35;100165.34;4877463;29;20143;-74
2023/11/12 04:59:53;;;;;;;5.72;4.40;;;;;;;5.94;51.64;100167.19;4891170;29;20053;-74
2023/11/12 05:02:21;;;;;;;6.82;4.80;;;;;;;5.94;51.60;100161.75;4885696;29;20060;-74
2023/11/12 05:04:49;;;;;;;6.55;4.65;;;;;;;5.94;51.38;100168.06;4881616;29;20144;-74
2023/11/12 05:07:17;;;;;;;6.82;4.80;;;;;;;5.94;51.55;100165.34;4888146;29;20153;-74
2023/11/12 05:09:45;;;;;;;6.68;5.05;;;;;;;5.93;51.38;100168.16;4870629;29;20065;-74
2023/11/12 05:12:15;;;;;;;6.45;4.57;;;;;;;5.95;51.66;100166.19;4873323;29;20123;-73
2023/11/12 05:14:45;;;;;;;6.10;4.60;;;;;;;5.95;51.78;100164.31;4887116;29;20148;-74
2023/11/12 05:17:13;;;;;;;6.57;4.40;;;;;;;5.94;51.54;100168.06;4885460;29;20059;-74
2023/11/12 05:19:41;;;;;;;7.22;4.78;;;;;;;5.95;51.81;100168.91;4910471;29;20115;-74
2023/11/12 05:22:09;;;;;;;6.85;4.50;;;;;;;5.95;51.75;100177.06;4894414;29;20187;-74
2023/11/12 05:24:37;;;;;;;6.93;4.82;;;;;;;5.96;51.88;100176.06;4908527;29;20346;-74
2023/11/12 05:27:06;;;;;;;6.97;4.60;;;;;;;5.98;51.93;100174.97;4918056;29;20048;-74
2023/11/12 05:29:34;;;;;;;7.03;4.50;;;;;;;5.97;51.98;100172.34;4911814;29;20058;-74
2023/11/12 05:32:03;;;;;;;6.00;4.35;;;;;;;5.99;51.99;100171.25;4895336;29;20143;-74
2023/11/12 05:34:31;;;;;;;5.35;4.10;;;;;;;5.99;51.76;100173.97;4893480;29;20059;-74
2023/11/12 05:36:59;;;;;;;7.35;4.70;;;;;;;5.99;51.66;100171.25;4889499;29;20140;-74
2023/11/12 05:39:27;;;;;;;6.45;4.18;;;;;;;6.00;51.53;100177.56;4891356;29;20053;-74
2023/11/12 05:41:55;;;;;;;6.45;4.50;;;;;;;6.00;51.52;100178.41;4882456;29;20048;-74
2023/11/12 05:44:23;;;;;;;6.53;4.43;;;;;;;6.00;51.56;100183.00;4904830;29;20063;-74
2023/11/12 05:46:51;;;;;;;7.63;4.45;;;;;;;5.99;51.81;100182.13;4910773;29;20060;-74
2023/11/12 05:49:20;;;;;;;7.53;4.15;;;;;;;6.00;51.88;100183.84;4909276;29;20138;-74
2023/11/12 05:51:48;;;;;;;5.97;4.60;;;;;;;5.99;51.79;100179.41;4895185;29;20057;-74
2023/11/12 05:54:19;;;;;;;6.60;4.28;;;;;;;5.99;51.48;100179.41;4874483;29;20108;-74
2023/11/12 05:56:47;;;;;;;8.00;4.60;;;;;;;5.99;51.81;100181.25;4896822;29;20059;-75
2023/11/12 05:59:15;;;;;;;6.35;4.22;;;;;;;6.00;51.92;100185.69;4914367;29;20054;-73
2023/11/12 06:01:43;;;;;;;8.82;4.63;;;;;;;5.99;51.59;100181.25;4893536;29;20123;-74
2023/11/12 06:04:11;;;;;;;5.72;4.25;;;;;;;5.98;51.57;100183.09;4895988;29;20047;-74
2023/11/12 06:06:41;;;;;;;6.80;4.22;;;;;;;5.99;52.00;100179.41;4896030;29;20433;-74
2023/11/12 06:09:09;;;;;;;5.72;4.22;;;;;;;5.97;51.76;100183.22;4882917;29;20057;-74
2023/11/12 06:11:38;;;;;;;5.97;4.13;;;;;;;5.97;51.58;100197.66;4899754;29;20055;-74
2023/11/12 06:14:06;;;;;;;5.93;4.20;;;;;;;5.97;51.88;100196.81;4913864;29;20056;-74
2023/11/12 06:16:35;;;;;;;5.43;3.42;;;;;;;5.96;51.48;100203.22;4882490;29;20060;-74
2023/11/12 06:19:03;;;;;;;5.82;3.92;;;;;;;5.96;51.48;100200.50;4895942;29;20064;-74
2023/11/12 06:21:31;;;;;;;6.22;4.03;;;;;;;5.95;51.63;100201.50;4882106;29;20076;-74
2023/11/12 06:24:01;;;;;;;6.38;3.67;;;;;;;5.97;51.74;100202.22;4912819;29;20048;-74
2023/11/12 06:26:32;;;;;;;6.78;3.90;;;;;;;5.94;51.69;100200.66;4895150;29;20074;-74
2023/11/12 06:29:01;;;;;;;4.78;3.70;;;;;;;5.92;51.72;100199.03;4913537;29;20066;-74
2023/11/12 06:31:29;;;;;;;4.38;3.55;;;;;;;5.93;51.61;100207.06;4897703;29;20147;-74
2023/11/12 06:33:58;;;;;;;5.57;3.50;;;;;;;5.93;51.60;100209.78;4896365;29;20069;-74
2023/11/12 06:36:26;;;;;;;5.75;3.85;;;;;;;5.91;51.74;100209.03;4890781;29;20051;-74
2023/11/12 06:38:54;;;;;;;4.78;3.53;;;;;;;5.91;51.40;100208.16;4895819;29;20131;-74
2023/11/12 06:41:24;;;;;;;4.95;3.38;;;;;;;5.90;51.58;100214.56;4899623;29;20520;-74
2023/11/12 06:43:52;;;;;;;4.78;3.35;;;;;;;5.87;51.59;100212.13;4913984;29;20064;-74
2023/11/12 06:46:20;;;;;;;5.57;3.38;;;;;;;5.86;51.60;100213.97;4906155;29;20554;-74
2023/11/12 06:48:48;;;;;;;5.15;3.50;;;;;;;5.85;51.38;100216.78;4905413;29;20055;-74
2023/11/12 06:51:21;;;;;;;5.05;3.40;;;;;;;5.87;51.43;100214.81;4912433;29;20083;-74
2023/11/12 06:53:49;;;;;;;5.70;3.28;;;;;;;5.83;51.73;100218.75;4911373;29;20044;-74
2023/11/12 06:56:17;;;;;;;5.00;3.28;;;;;;;5.82;51.42;100217.88;4911463;29;20769;-75
2023/11/12 06:58:48;;;;;;;5.60;3.28;;;;;;;5.82;51.59;100226.03;4911540;29;20051;-74
2023/11/12 07:01:16;;;;;;;4.18;3.05;;;;;;;5.81;51.36;100228.88;4893185;29;20050;-74
2023/11/12 07:03:44;;;;;;;5.07;3.40;;;;;;;5.80;51.59;100225.28;4887575;29;20420;-74
2023/11/12 07:06:12;;;;;;;5.38;3.58;;;;;;;5.81;51.57;100237.00;4886256;29;20060;-74
2023/11/12 07:08:41;;;;;;;4.95;3.33;;;;;;;5.79;51.56;100234.41;4893390;29;20079;-74
2023/11/12 07:11:10;;;;;;;4.90;3.40;;;;;;;5.79;51.28;100237.13;4889917;29;20052;-73
2023/11/12 07:13:38;;;;;;;6.68;3.10;;;;;;;5.79;51.00;100237.13;4882992;29;20095;-74
2023/11/12 07:16:16;;;;;;;5.18;3.30;;;;;;;5.79;51.08;100245.25;4887596;29;20515;-73
2023/11/12 07:18:44;;;;;;;5.47;3.05;;;;;;;5.75;51.19;100246.50;4890539;29;20056;-73
2023/11/12 07:21:25;;;;;;;4.65;3.28;;;;;;;5.76;51.32;100250.09;4885360;29;20059;-73
2023/11/12 07:23:54;;;;;;;4.45;3.03;;;;;;;5.71;51.36;100249.59;4887771;29;20635;-73
2023/11/12 07:26:24;;;;;;;5.78;3.20;;;;;;;5.73;51.18;100240.31;4884519;29;20076;-73
2023/11/12 07:28:52;;;;;;;4.72;3.00;;;;;;;5.71;51.18;100247.72;4900137;29;20052;-73
2023/11/12 07:31:23;;;;;;;5.18;3.40;;;;;;;5.72;51.06;100252.16;4903646;29;20075;-73
2023/11/12 07:33:52;;;;;;;4.85;3.17;;;;;;;5.70;51.35;100258.72;4903281;29;20139;-74
2023/11/12 07:36:21;;;;;;;4.55;3.08;;;;;;;5.68;51.39;100254.25;4900802;29;20797;-74
2023/11/12 07:38:50;;;;;;;4.80;3.30;;;;;;;5.68;51.00;100254.25;4883557;29;20068;-73
2023/11/12 07:41:18;;;;;;;4.97;3.17;;;;;;;5.68;51.10;100266.97;4898670;29;20048;-73
2023/11/12 07:43:46;;;;;;;4.63;3.05;;;;;;;5.68;51.30;100269.69;4906501;29;20059;-74
2023/11/12 07:46:14;;;;;;;5.00;2.92;;;;;;;5.67;51.29;100271.53;4911493;29;20163;-73
2023/11/12 07:48:43;;;;;;;4.78;3.03;;;;;;;5.69;51.21;100276.84;4897111;29;20439;-74
2023/11/12 07:51:12;;;;;;;6.20;3.33;;;;;;;5.68;51.30;100275.97;4911564;29;20052;-73
2023/11/12 07:53:40;;;;;;;4.78;3.03;;;;;;;5.68;51.53;100270.56;4891218;29;20104;-74
2023/11/12 07:58:50;;;;;;;5.38;3.30;;;;;;;5.67;51.26;100276.09;4912256;29;20079;-74
2023/11/12 08:01:18;;;;;;;5.03;3.08;;;;;;;5.68;51.65;100278.69;4898494;29;20528;-74
2023/11/12 08:03:47;;;;;;;4.45;2.95;;;;;;;5.70;51.31;100277.72;4901086;29;20048;-74
2023/11/12 08:06:15;;;;;;;4.13;3.05;;;;;;;5.69;51.55;100279.56;4897139;29;20528;-74
2023/11/12 08:08:43;;;;;;;5.05;3.08;;;;;;;5.68;51.72;100281.41;4884815;29;20423;-74
2023/11/12 08:11:11;;;;;;;5.00;3.17;;;;;;;5.70;51.73;100277.72;4885676;29;20150;-75
2023/11/12 08:13:39;;;;;;;4.35;2.88;;;;;;;5.70;51.46;100278.59;4886547;29;20052;-74
2023/11/12 08:16:09;;;;;;;4.93;3.33;;;;;;;5.71;51.49;100284.88;4901906;29;20059;-74
2023/11/12 08:18:39;;;;;;;5.22;3.15;;;;;;;5.73;51.46;100291.03;4899893;29;20065;-74
2023/11/12 08:21:09;;;;;;;5.75;3.20;;;;;;;5.73;51.51;100281.03;4887900;29;20207;-74
2023/11/12 08:23:37;;;;;;;5.35;3.28;;;;;;;5.73;51.36;100294.63;4905562;29;20112;-74
2023/11/12 08:26:05;;;;;;;5.30;3.47;;;;;;;5.73;51.44;100289.19;4884717;29;20158;-74
2023/11/12 08:28:33;;;;;;;6.00;3.30;;;;;;;5.75;51.90;100294.50;4897227;29;20587;-74
2023/11/12 08:31:01;;;;;;;5.03;3.22;;;;;;;5.75;51.80;100298.09;4885142;29;20645;-74
2023/11/12 08:33:29;;;;;;;5.85;3.17;;;;;;;5.78;51.74;100303.31;4900467;29;20150;-74
2023/11/12 08:35:57;;;;;;;4.38;3.15;;;;;;;5.78;51.80;100300.59;4885746;29;20049;-74
2023/11/12 08:38:27;;;;;;;6.20;3.28;;;;;;;5.82;51.58;100302.06;4882627;29;20596;-74
2023/11/12 08:40:55;;;;;;;5.65;3.80;;;;;;;5.83;52.02;100308.38;4893756;29;20072;-74
2023/11/12 08:43:24;;;;;;;4.63;3.22;;;;;;;5.84;51.99;100313.69;4899129;29;20531;-74
2023/11/12 08:45:52;;;;;;;5.85;3.47;;;;;;;5.86;51.85;100310.84;4876297;29;20076;-73
2023/11/12 08:48:20;;;;;;;5.38;3.38;;;;;;;5.89;52.22;100319.63;4886084;29;20092;-74
2023/11/12 08:50:49;;;;;;;5.43;3.80;;;;;;;5.92;51.94;100316.69;4876517;29;20124;-73
2023/11/12 08:53:17;;;;;;;5.55;2.97;;;;;;;5.95;52.38;100315.59;4887156;29;20068;-73
2023/11/12 08:55:47;;;;;;;4.07;3.05;;;;;;;6.00;52.26;100318.81;4896055;29;20060;-77
2023/11/12 08:58:15;;;;;;;5.25;3.22;;;;;;;6.03;52.15;100315.84;4906594;29;20059;-73
2023/11/12 09:00:42;;;;;;;5.60;3.33;;;;;;;6.07;52.40;100317.34;4905799;29;20048;-75
2023/11/12 09:03:10;;;;;;;5.50;3.70;;;;;;;6.12;52.31;100312.41;4889447;29;20051;-75
2023/11/12 09:05:38;;;;;;;5.57;3.40;;;;;;;6.16;52.47;100311.19;4888518;29;20495;-73
2023/11/12 09:08:07;;;;;;;5.40;3.03;;;;;;;6.21;52.30;100314.41;4906671;29;20732;-75
2023/11/12 09:10:35;;;;;;;5.18;3.45;;;;;;;6.26;52.23;100309.50;4907153;29;20086;-74
2023/11/12 09:13:05;;;;;;;5.18;3.08;;;;;;;6.33;52.50;100313.47;4905415;29;20057;-74
2023/11/12 09:15:33;;;;;;;5.97;3.40;;;;;;;6.37;52.45;100316.78;4888978;29;20159;-73
2023/11/12 09:18:02;;;;;;;4.88;3.15;;;;;;;6.43;52.55;100317.19;4887545;29;20051;-74
2023/11/12 09:20:30;;;;;;;5.20;3.35;;;;;;;6.49;52.66;100310.38;4887262;29;20059;-74
2023/11/12 09:22:58;;;;;;;6.53;3.70;;;;;;;6.55;52.39;100314.47;4905266;29;20067;-74
2023/11/12 09:25:26;;;;;;;5.22;3.60;;;;;;;6.61;52.44;100303.13;4887225;29;20052;-74
2023/11/12 09:27:55;;;;;;;5.35;3.60;;;;;;;6.67;52.26;100308.94;4905858;29;20047;-74
2023/11/12 09:30:25;;;;;;;5.47;3.65;;;;;;;6.75;52.06;100314.66;4904602;29;20135;-75
2023/11/12 09:32:58;;;;;;;4.68;3.30;;;;;;;6.80;52.29;100308.84;4905402;29;20393;-77
2023/11/12 09:35:26;;;;;;;5.45;3.13;;;;;;;6.87;52.24;100303.75;4902681;29;20071;-75
2023/11/12 09:37:54;;;;;;;6.35;3.75;;;;;;;6.93;52.25;100306.00;4885455;29;20056;-74
2023/11/12 09:40:22;;;;;;;4.40;2.97;;;;;;;6.98;52.03;100306.47;4887492;29;20607;-76
2023/11/12 09:42:53;;;;;;;5.63;3.75;;;;;;;7.05;51.69;100304.97;4906147;29;20070;-76
2023/11/12 09:45:22;;;;;;;5.78;3.35;;;;;;;7.09;51.92;100304.63;4902447;29;20067;-76
2023/11/12 09:48:03;;;;;;;5.95;3.17;;;;;;;7.16;50.89;100304.97;4889343;29;20063;-75
2023/11/12 09:50:31;;;;;;;5.55;2.95;;;;;;;7.20;51.88;100306.44;4887340;29;20055;-74
2023/11/12 09:53:03;;;;;;;6.07;3.83;;;;;;;7.26;52.05;100305.09;4905213;29;20059;-75
2023/11/12 09:55:31;;;;;;;5.53;3.33;;;;;;;7.33;51.87;100303.59;4901589;29;20432;-75
2023/11/12 09:58:01;;;;;;;6.40;3.25;;;;;;;7.38;51.77;100304.06;4887910;29;20068;-75
2023/11/12 10:00:34;;;;;;;6.07;3.28;;;;;;;7.46;51.03;100304.28;4887174;29;20531;-75
2023/11/12 10:03:06;;;;;;;;;;;;;;;7.23;51.25;100308.06;4889471;29;20075;-76
2023/11/12 10:05:35;;;;;;;5.00;2.97;;;;;;;7.46;51.31;100302.44;4892659;29;19930;-76
2023/11/12 10:08:05;;;;;;;6.78;3.65;;;;;;;7.54;50.98;100302.66;4902545;29;20537;-76
2023/11/12 10:10:34;;;;;;;6.22;3.85;;;;;;;7.59;51.27;100302.28;4885798;29;20052;-77
2023/11/12 10:13:04;;;;;;;4.38;3.10;;;;;;;7.61;51.13;100296.69;4888032;29;20084;-77
2023/11/12 10:15:34;;;;;;;4.28;3.20;;;;;;;7.64;51.09;100301.88;4892377;29;20528;-77
2023/11/12 10:18:06;;;;;;;4.43;2.95;;;;;;;7.69;50.98;100303.22;4908976;29;20107;-77
2023/11/12 10:20:38;;;;;;;5.50;3.38;;;;;;;7.72;50.72;100302.09;4890724;29;20729;-77
2023/11/12 10:23:19;;;;;;;4.97;3.42;;;;;;;7.74;50.37;100290.09;4894654;29;20052;-77
2023/11/12 10:26:02;;;;;;;;;;;;;;;7.50;50.95;100286.72;4907144;29;20058;-76
2023/11/12 10:28:34;;;;;;;4.40;2.80;;;;;;;7.77;50.72;100288.94;4891590;29;19958;-77
2023/11/12 10:31:02;;;;;;;6.20;3.60;;;;;;;7.77;50.72;100287.09;4887062;29;20048;-75
2023/11/12 10:33:33;;;;;;;5.18;3.20;;;;;;;7.85;50.82;100292.75;4891232;29;20139;-77
2023/11/12 10:36:08;;;;;;;5.13;3.03;;;;;;;7.87;50.11;100282.59;4891079;29;20056;-77
2023/11/12 10:38:47;;;;;;;4.45;3.25;;;;;;;7.90;49.66;100286.94;4906855;29;22915;-77
2023/11/12 10:41:15;;;;;;;4.72;3.17;;;;;;;7.89;50.55;100288.78;4907584;29;20048;-75
2023/11/12 10:43:58;;;;;;;4.75;3.00;;;;;;;7.94;49.66;100272.91;4892452;29;20054;-75
2023/11/12 10:46:27;;;;;;;4.57;3.03;;;;;;;7.94;50.81;100272.03;4888605;29;20520;-76
2023/11/12 10:48:57;;;;;;;5.30;3.40;;;;;;;8.02;50.28;100280.41;4906604;29;20083;-73
2023/11/12 10:51:27;;;;;;;5.75;3.45;;;;;;;8.06;50.57;100283.75;4888835;29;20262;-74
2023/11/12 10:53:58;;;;;;;5.22;3.35;;;;;;;8.09;50.55;100286.22;4887976;29;20135;-73
2023/11/12 10:56:28;;;;;;;7.40;3.50;;;;;;;8.12;50.51;100283.22;4900801;29;20052;-74
2023/11/12 10:58:57;;;;;;;5.30;3.05;;;;;;;8.17;50.73;100281.88;4908809;29;20043;-74
2023/11/12 11:01:26;;;;;;;4.57;2.90;;;;;;;8.22;50.74;100282.31;4892059;29;20070;-72
2023/11/12 11:03:54;;;;;;;5.22;2.97;;;;;;;8.26;50.72;100280.16;4911559;29;20058;-77
2023/11/12 11:06:26;;;;;;;5.78;3.08;;;;;;;8.33;50.17;100289.56;4895005;29;20066;-76
2023/11/12 11:08:55;;;;;;;4.67;2.97;;;;;;;8.33;50.60;100281.41;4894876;29;20056;-76
2023/11/12 11:11:24;;;;;;;4.97;2.90;;;;;;;8.41;50.14;100280.72;4911789;29;20323;-75
2023/11/12 11:13:52;;;;;;;5.32;2.55;;;;;;;8.45;50.11;100283.03;4893471;29;20060;-74
2023/11/12 11:16:46;;;;;;;4.85;2.80;;;;;;;8.50;49.09;100288.09;4909949;29;20619;-74
2023/11/12 11:19:14;;;;;;;4.38;2.75;;;;;;;8.54;50.37;100292.25;4890557;29;20151;-73
2023/11/12 11:22:22;;;;;;;5.57;2.70;;;;;;;8.60;48.93;100289.84;4893390;29;20122;-73
2023/11/12 11:24:51;;;;;;;4.65;2.65;;;;;;;8.66;50.80;100294.78;4891822;29;20902;-74
2023/11/12 11:27:21;;;;;;;5.25;3.00;;;;;;;8.75;50.19;100293.13;4910157;29;20138;-74
2023/11/12 11:30:08;;;;;;;5.13;2.90;;;;;;;8.84;49.22;100285.94;4910466;29;20052;-73
2023/11/12 11:32:37;;;;;;;4.78;2.83;;;;;;;8.88;50.40;100290.13;4889242;29;20092;-73
2023/11/12 11:35:17;;;;;;;5.70;3.10;;;;;;;8.97;49.04;100290.19;4909934;29;20466;-73
2023/11/12 11:38:16;;;;;;;4.55;3.13;;;;;;;9.01;48.69;100285.28;4892784;29;20052;-75
2023/11/12 11:40:56;;;;;;;5.13;2.78;;;;;;;9.07;48.50;100290.22;4908343;29;20063;-74
2023/11/12 11:43:32;;;;;;;5.40;3.42;;;;;;;9.12;48.94;100281.59;4901836;29;20093;-74
2023/11/12 11:46:14;;;;;;;4.90;3.03;;;;;;;9.16;48.40;100286.66;4908974;29;20063;-74
2023/11/12 11:49:17;;;;;;;6.03;3.10;;;;;;;9.16;48.23;100283.94;4907590;29;20052;-75